sensor_id;sensor_type;location;lat;lon;timestamp;temperature;humidity
70548;DHT22;58099;43.406;3.698;2023-06-19T17:11:43;26.40;99.90
70548;DHT22;58099;43.406;3.698;2023-06-19T17:14:09;26.50;99.90
70548;DHT22;58099;43.406;3.698;2023-06-19T17:16:35;26.50;99.90
70548;DHT22;58099;43.406;3.698;2023-06-19T17:19:00;26.40;99.90
70548;DHT22;58099;43.406;3.698;2023-06-19T17:21:26;26.30;99.90
70548;DHT22;58099;43.406;3.698;2023-06-19T17:23:52;26.30;99.90
70548;DHT22;58099;43.406;3.698;2023-06-19T17:26:19;26.30;99.90
70548;DHT22;58099;43.406;3.698;2023-06-19T17:28:45;26.30;99.90
70548;DHT22;58099;43.406;3.698;2023-06-19T17:31:10;26.30;99.90
70548;DHT22;58099;43.406;3.698;2023-06-19T17:33:36;26.30;99.90
70548;DHT22;58099;43.406;3.698;2023-06-19T17:36:02;26.30;99.90
70548;DHT22;58099;43.406;3.698;2023-06-19T17:38:28;26.50;99.90
70548;DHT22;58099;43.406;3.698;2023-06-19T17:40:54;26.40;99.90
70548;DHT22;58099;43.406;3.698;2023-06-19T17:43:19;26.40;99.90
70548;DHT22;58099;43.406;3.698;2023-06-19T17:45:45;26.60;99.90
70548;DHT22;58099;43.406;3.698;2023-06-19T17:48:11;26.60;99.90
70548;DHT22;58099;43.406;3.698;2023-06-19T17:50:36;26.50;99.90
70548;DHT22;58099;43.406;3.698;2023-06-19T17:53:02;26.50;99.90
70548;DHT22;58099;43.406;3.698;2023-06-19T17:55:29;26.50;99.90
70548;DHT22;58099;43.406;3.698;2023-06-19T17:57:56;26.60;99.90
70548;DHT22;58099;43.406;3.698;2023-06-19T18:00:21;26.60;99.90
70548;DHT22;58099;43.406;3.698;2023-06-19T18:02:47;26.70;99.90
70548;DHT22;58099;43.406;3.698;2023-06-19T18:05:13;26.70;99.90
70548;DHT22;58099;43.406;3.698;2023-06-19T18:07:39;26.70;99.60
70548;DHT22;58099;43.406;3.698;2023-06-19T18:10:05;26.70;99.10
70548;DHT22;58099;43.406;3.698;2023-06-19T18:12:31;26.80;99.90
70548;DHT22;58099;43.406;3.698;2023-06-19T18:14:56;26.50;97.70
70548;DHT22;58099;43.406;3.698;2023-06-19T18:17:22;26.50;97.60
70548;DHT22;58099;43.406;3.698;2023-06-19T18:19:48;26.70;99.10
70548;DHT22;58099;43.406;3.698;2023-06-19T18:22:13;26.70;98.40
70548;DHT22;58099;43.406;3.698;2023-06-19T18:24:39;26.50;97.30
70548;DHT22;58099;43.406;3.698;2023-06-19T18:27:05;26.60;97.20
70548;DHT22;58099;43.406;3.698;2023-06-19T18:29:32;26.50;96.50
70548;DHT22;58099;43.406;3.698;2023-06-19T18:31:59;26.50;97.30
70548;DHT22;58099;43.406;3.698;2023-06-19T18:34:25;26.60;97.50
70548;DHT22;58099;43.406;3.698;2023-06-19T18:36:51;26.60;97.50
70548;DHT22;58099;43.406;3.698;2023-06-19T18:39:16;26.30;96.20
70548;DHT22;58099;43.406;3.698;2023-06-19T18:41:42;26.30;96.80
70548;DHT22;58099;43.406;3.698;2023-06-19T18:44:08;26.20;96.60
70548;DHT22;58099;43.406;3.698;2023-06-19T18:46:34;26.10;96.30
70548;DHT22;58099;43.406;3.698;2023-06-19T18:49:00;26.10;96.60
70548;DHT22;58099;43.406;3.698;2023-06-19T18:51:25;26.00;96.60
70548;DHT22;58099;43.406;3.698;2023-06-19T18:53:51;26.10;96.60
70548;DHT22;58099;43.406;3.698;2023-06-19T18:56:17;26.00;96.70
70548;DHT22;58099;43.406;3.698;2023-06-19T18:58:43;26.00;96.70
70548;DHT22;58099;43.406;3.698;2023-06-19T19:01:09;26.00;97.10
70548;DHT22;58099;43.406;3.698;2023-06-19T19:03:35;25.90;96.90
70548;DHT22;58099;43.406;3.698;2023-06-19T19:06:00;25.90;97.20
70548;DHT22;58099;43.406;3.698;2023-06-19T19:08:27;25.70;97.30
70548;DHT22;58099;43.406;3.698;2023-06-19T19:10:52;25.90;98.30
70548;DHT22;58099;43.406;3.698;2023-06-19T19:13:18;25.90;97.50
70548;DHT22;58099;43.406;3.698;2023-06-19T19:15:44;25.80;97.70
70548;DHT22;58099;43.406;3.698;2023-06-19T19:18:09;25.70;98.00
70548;DHT22;58099;43.406;3.698;2023-06-19T19:20:35;25.60;97.90
